TimeEDT,TemperatureF,Dew PointF,Humidity,Sea Level PressureIn,VisibilityMPH,Wind Direction,Wind SpeedMPH,Gust SpeedMPH,PrecipitationIn,Events,Conditions,WindDirDegrees,DateUTC
12:15 AM,59.0,53.6,82,29.78,10.0,NW,5.8,-,N/A,,Overcast,320,2013-06-13 04:15:00
12:35 AM,57.2,53.6,88,29.79,10.0,NW,9.2,-,N/A,,Scattered Clouds,310,2013-06-13 04:35:00
12:55 AM,59.0,51.8,77,29.79,10.0,NNW,10.4,-,N/A,,Clear,340,2013-06-13 04:55:00
1:15 AM,57.2,51.8,82,29.79,10.0,NW,6.9,-,N/A,,Clear,320,2013-06-13 05:15:00
1:35 AM,57.2,53.6,88,29.78,10.0,WNW,5.8,-,N/A,,Clear,300,2013-06-13 05:35:00
1:55 AM,57.2,53.6,88,29.79,10.0,NW,9.2,-,N/A,,Partly Cloudy,310,2013-06-13 05:55:00
2:15 AM,57.2,53.6,88,29.78,10.0,WNW,10.4,-,N/A,,Partly Cloudy,300,2013-06-13 06:15:00
2:35 AM,57.2,53.6,88,29.78,10.0,WNW,11.5,-,N/A,,Clear,300,2013-06-13 06:35:00
2:55 AM,57.2,53.6,88,29.77,10.0,WNW,11.5,-,N/A,,Clear,300,2013-06-13 06:55:00
3:15 AM,57.2,53.6,88,29.78,10.0,WNW,10.4,-,N/A,,Clear,300,2013-06-13 07:15:00
3:35 AM,57.2,53.6,88,29.78,10.0,NW,9.2,-,N/A,,Clear,310,2013-06-13 07:35:00
3:55 AM,57.2,53.6,88,29.79,10.0,NW,8.1,-,N/A,,Clear,320,2013-06-13 07:55:00
4:15 AM,57.2,53.6,88,29.78,10.0,NW,8.1,-,N/A,,Clear,320,2013-06-13 08:15:00
4:35 AM,57.2,53.6,88,29.79,10.0,NW,5.8,-,N/A,,Clear,310,2013-06-13 08:35:00
4:55 AM,57.2,53.6,88,29.80,10.0,NW,5.8,-,N/A,,Clear,320,2013-06-13 08:55:00
5:15 AM,55.4,53.6,94,29.81,10.0,NW,3.5,-,N/A,,Clear,310,2013-06-13 09:15:00
5:35 AM,55.4,53.6,94,29.81,10.0,WNW,3.5,-,N/A,,Clear,300,2013-06-13 09:35:00
5:55 AM,57.2,53.6,88,29.82,10.0,NNW,3.5,-,N/A,,Clear,330,2013-06-13 09:55:00
6:15 AM,57.2,53.6,88,29.82,10.0,WNW,6.9,-,N/A,,Clear,300,2013-06-13 10:15:00
6:35 AM,57.2,53.6,88,29.82,10.0,WNW,3.5,-,N/A,,Clear,290,2013-06-13 10:35:00
6:55 AM,59.0,55.4,88,29.82,10.0,WNW,4.6,-,N/A,,Clear,290,2013-06-13 10:55:00
7:15 AM,60.8,53.6,77,29.82,10.0,WNW,3.5,-,N/A,,Clear,300,2013-06-13 11:15:00
7:35 AM,60.8,53.6,77,29.83,10.0,WNW,4.6,-,N/A,,Clear,290,2013-06-13 11:35:00
7:55 AM,60.8,53.6,77,29.82,10.0,Calm,Calm,-,N/A,,Clear,0,2013-06-13 11:55:00
8:15 AM,62.6,53.6,72,29.82,10.0,WNW,3.5,-,N/A,,Clear,300,2013-06-13 12:15:00
8:35 AM,62.6,53.6,72,29.82,10.0,Calm,Calm,-,N/A,,Clear,0,2013-06-13 12:35:00
8:55 AM,62.6,53.6,72,29.82,10.0,North,4.6,-,N/A,,Clear,360,2013-06-13 12:55:00
9:15 AM,62.6,53.6,72,29.82,10.0,NE,3.5,-,N/A,,Clear,40,2013-06-13 13:15:00
9:35 AM,62.6,53.6,72,29.82,10.0,ENE,5.8,-,N/A,,Clear,60,2013-06-13 13:35:00
9:55 AM,62.6,51.8,68,29.81,10.0,East,6.9,-,N/A,,Clear,80,2013-06-13 13:55:00
10:15 AM,64.4,51.8,64,29.82,10.0,East,5.8,-,N/A,,Clear,90,2013-06-13 14:15:00
10:35 AM,64.4,51.8,64,29.81,10.0,East,9.2,-,N/A,,Clear,100,2013-06-13 14:35:00
10:55 AM,64.4,51.8,64,29.81,10.0,SSE,8.1,-,N/A,,Partly Cloudy,150,2013-06-13 14:55:00
11:15 AM,64.4,51.8,64,29.81,10.0,ESE,8.1,-,N/A,,Clear,120,2013-06-13 15:15:00
11:35 AM,62.6,51.8,68,29.81,10.0,SE,5.8,-,N/A,,Scattered Clouds,140,2013-06-13 15:35:00
11:55 AM,62.6,51.8,68,29.82,10.0,SSE,6.9,-,N/A,,Overcast,160,2013-06-13 15:55:00
12:15 PM,62.6,51.8,68,29.81,10.0,South,6.9,-,N/A,,Overcast,180,2013-06-13 16:15:00
12:35 PM,64.4,51.8,64,29.80,10.0,SSE,9.2,-,N/A,,Mostly Cloudy,160,2013-06-13 16:35:00
12:55 PM,62.6,53.6,72,29.80,10.0,SSE,5.8,-,N/A,,Overcast,160,2013-06-13 16:55:00
1:15 PM,62.6,53.6,72,29.79,10.0,South,8.1,-,N/A,,Overcast,170,2013-06-13 17:15:00
1:35 PM,60.8,53.6,77,29.79,10.0,SSE,6.9,-,N/A,,Mostly Cloudy,160,2013-06-13 17:35:00
1:55 PM,60.8,53.6,77,29.79,10.0,SSE,8.1,-,N/A,,Overcast,160,2013-06-13 17:55:00
2:15 PM,60.8,55.4,82,29.79,10.0,South,6.9,-,0.01,,Overcast,170,2013-06-13 18:15:00
2:35 PM,59.0,53.6,82,29.78,10.0,South,9.2,-,0.01,,Overcast,170,2013-06-13 18:35:00
2:55 PM,59.0,53.6,82,29.74,10.0,SE,9.2,-,0.03,,Overcast,130,2013-06-13 18:55:00
3:15 PM,57.2,55.4,94,29.76,10.0,SSE,8.1,-,0.01,,Overcast,160,2013-06-13 19:15:00
3:35 PM,57.2,55.4,94,29.78,9.0,South,5.8,-,0.04,,Overcast,180,2013-06-13 19:35:00
3:55 PM,57.2,55.4,94,29.80,8.0,South,6.9,-,N/A,,Overcast,190,2013-06-13 19:55:00
4:15 PM,57.2,53.6,88,29.79,8.0,SSE,5.8,-,N/A,,Overcast,160,2013-06-13 20:15:00
4:35 PM,57.2,53.6,88,29.78,7.0,SE,4.6,-,N/A,,Overcast,140,2013-06-13 20:35:00
4:55 PM,57.2,53.6,88,29.77,10.0,East,5.8,-,N/A,,Overcast,90,2013-06-13 20:55:00
5:15 PM,57.2,53.6,88,29.76,10.0,East,5.8,-,N/A,,Overcast,80,2013-06-13 21:15:00
5:35 PM,57.2,53.6,88,29.75,10.0,ENE,6.9,-,N/A,,Overcast,70,2013-06-13 21:35:00
5:55 PM,57.2,53.6,88,29.72,10.0,East,9.2,-,N/A,,Overcast,80,2013-06-13 21:55:00
6:15 PM,55.4,51.8,88,29.73,10.0,East,6.9,-,N/A,,Overcast,90,2013-06-13 22:15:00
6:35 PM,55.4,51.8,88,29.73,10.0,East,6.9,-,N/A,,Overcast,90,2013-06-13 22:35:00
6:55 PM,55.4,51.8,88,29.72,10.0,ESE,8.1,-,N/A,,Overcast,110,2013-06-13 22:55:00
7:15 PM,55.4,50.0,82,29.72,10.0,ESE,6.9,-,N/A,,Overcast,120,2013-06-13 23:15:00
7:35 PM,55.4,51.8,88,29.73,10.0,East,5.8,-,N/A,,Overcast,80,2013-06-13 23:35:00
7:55 PM,55.4,51.8,88,29.72,10.0,ESE,8.1,-,N/A,,Overcast,110,2013-06-13 23:55:00
8:15 PM,55.4,51.8,88,29.72,10.0,East,8.1,-,N/A,,Overcast,80,2013-06-14 00:15:00
8:35 PM,55.4,53.6,94,29.72,10.0,East,10.4,-,N/A,,Overcast,80,2013-06-14 00:35:00
8:55 PM,55.4,53.6,94,29.72,10.0,ENE,15.0,-,N/A,,Overcast,70,2013-06-14 00:55:00
9:15 PM,55.4,53.6,94,29.73,9.0,ENE,13.8,-,N/A,,Overcast,70,2013-06-14 01:15:00
9:35 PM,55.4,53.6,94,29.73,10.0,ENE,11.5,-,N/A,,Overcast,60,2013-06-14 01:35:00
9:55 PM,55.4,53.6,94,29.75,9.0,ENE,10.4,-,0.01,,Overcast,60,2013-06-14 01:55:00
10:15 PM,53.6,51.8,94,29.72,7.0,ENE,13.8,-,0.02,,Overcast,60,2013-06-14 02:15:00
10:35 PM,53.6,51.8,94,29.72,8.0,ENE,12.7,-,0.04,,Overcast,60,2013-06-14 02:35:00
10:55 PM,53.6,51.8,94,29.70,10.0,ENE,17.3,21.9,0.04,,Overcast,60,2013-06-14 02:55:00
11:15 PM,53.6,51.8,94,29.69,10.0,ENE,15.0,19.6,0.01,,Overcast,60,2013-06-14 03:15:00
11:35 PM,53.6,51.8,94,29.68,10.0,NE,19.6,25.3,0.01,,Overcast,50,2013-06-14 03:35:00
11:55 PM,53.6,51.8,94,29.66,10.0,NE,18.4,25.3,N/A,,Overcast,50,2013-06-14 03:55:00